Time;durP1;ratioP1;P1;durP2;ratioP2;P2;SDS_P1;SDS_P2;PMS_P1;PMS_P2;Temp;Humidity;BMP_temperature;BMP_pressure;BME280_temperature;BME280_humidity;BME280_pressure;Samples;Min_cycle;Max_cycle;Signal;HPM_P1;HPM_P2
2022/05/07 00:00:22;;;;;;;66.95;35.47;;;;;;;11.49;100.00;102323.22;5267442;28;20362;-70
2022/05/07 00:02:52;;;;;;;63.05;35.92;;;;;;;11.49;100.00;102323.22;5267304;28;20028;-71
2022/05/07 00:05:24;;;;;;;59.55;35.50;;;;;;;11.51;100.00;102321.25;5280752;28;20016;-70
2022/05/07 00:07:54;;;;;;;66.07;36.92;;;;;;;11.53;100.00;102321.97;5273950;28;20063;-70
2022/05/07 00:10:25;;;;;;;63.10;35.67;;;;;;;11.56;100.00;102313.63;5286249;28;20031;-71
2022/05/07 00:12:56;;;;;;;67.90;37.25;;;;;;;11.54;100.00;102315.59;5274595;28;20023;-71
2022/05/07 00:15:26;;;;;;;70.30;38.85;;;;;;;11.50;100.00;102310.66;5273127;28;20030;-71
2022/05/07 00:18:10;;;;;;;67.18;35.63;;;;;;;11.40;100.00;102308.78;5280647;28;20106;-71
2022/05/07 00:20:41;;;;;;;60.83;34.75;;;;;;;11.27;100.00;102302.78;5277630;28;20098;-71
2022/05/07 00:23:11;;;;;;;58.08;32.78;;;;;;;11.11;100.00;102303.28;5283318;28;20111;-70
2022/05/07 00:25:42;;;;;;;58.97;34.47;;;;;;;11.00;100.00;102311.44;5266651;28;20465;-70
2022/05/07 00:28:12;;;;;;;61.95;35.00;;;;;;;10.91;100.00;102304.16;5280355;28;20543;-70
2022/05/07 00:30:43;;;;;;;68.93;35.28;;;;;;;10.84;100.00;102300.28;5280159;28;20400;-70
2022/05/07 00:33:13;;;;;;;67.35;37.42;;;;;;;10.79;100.00;102300.72;5273659;28;20445;-70
2022/05/07 00:35:43;;;;;;;69.43;37.92;;;;;;;10.80;100.00;102293.50;5273701;27;20107;-71
2022/05/07 00:38:14;;;;;;;73.72;36.70;;;;;;;10.80;100.00;102290.81;5266384;28;20481;-70
2022/05/07 00:40:44;;;;;;;66.22;37.70;;;;;;;10.88;100.00;102294.53;5267673;28;20024;-70
2022/05/07 00:43:15;;;;;;;69.03;38.95;;;;;;;10.96;100.00;102299.25;5287708;28;20019;-70
2022/05/07 00:45:47;;;;;;;67.28;36.45;;;;;;;11.04;100.00;102296.72;5273554;28;20024;-71
2022/05/07 00:48:17;;;;;;;68.95;36.65;;;;;;;11.10;100.00;102298.91;5277442;28;20119;-70
2022/05/07 00:53:38;;;;;;;67.38;37.58;;;;;;;11.25;100.00;102298.53;5273724;28;20027;-71
2022/05/07 00:56:09;;;;;;;64.80;36.38;;;;;;;11.23;100.00;102289.75;5278687;28;20035;-70
2022/05/07 00:58:39;;;;;;;68.53;36.15;;;;;;;11.22;100.00;102288.06;5281680;28;20020;-70
2022/05/07 01:01:10;;;;;;;59.50;35.38;;;;;;;11.20;100.00;102292.72;5277975;28;20540;-70
2022/05/07 01:03:40;;;;;;;63.47;36.40;;;;;;;11.10;100.00;102285.47;5280175;28;20461;-70
2022/05/07 01:06:11;;;;;;;68.25;37.45;;;;;;;11.07;100.00;102288.41;5277486;28;20008;-70
2022/05/07 01:08:42;;;;;;;71.32;36.30;;;;;;;11.04;100.00;102283.28;5273346;28;20011;-71
2022/05/07 01:11:15;;;;;;;65.70;37.22;;;;;;;11.00;100.00;102295.31;5275296;28;20028;-70
2022/05/07 01:13:47;;;;;;;71.72;37.05;;;;;;;10.97;100.00;102290.19;5272378;28;20053;-71
2022/05/07 01:16:17;;;;;;;74.28;38.38;;;;;;;10.90;100.00;102294.41;5272947;28;20145;-70
2022/05/07 01:18:48;;;;;;;72.75;37.80;;;;;;;10.81;100.00;102281.78;5266665;28;20028;-70
2022/05/07 01:21:19;;;;;;;71.75;38.28;;;;;;;10.75;100.00;102274.28;5279502;28;20023;-70
2022/05/07 01:23:49;;;;;;;71.65;39.95;;;;;;;10.73;100.00;102274.38;5275210;28;20027;-70
2022/05/07 01:26:22;;;;;;;68.43;37.05;;;;;;;10.72;100.00;102275.38;5273447;28;20050;-70
2022/05/07 01:29:09;;;;;;;71.57;39.50;;;;;;;10.73;100.00;102279.75;5276770;28;20020;-70
2022/05/07 01:31:40;;;;;;;73.07;38.40;;;;;;;10.77;100.00;102281.19;5279495;28;20444;-70
2022/05/07 01:34:10;;;;;;;70.30;37.20;;;;;;;10.81;100.00;102282.63;5279569;28;20052;-69
2022/05/07 01:36:41;;;;;;;74.00;40.10;;;;;;;10.85;100.00;102280.53;5273442;28;20030;-71
2022/05/07 01:39:12;;;;;;;68.95;37.97;;;;;;;10.92;100.00;102278.16;5272382;28;20028;-70
2022/05/07 01:41:42;;;;;;;71.75;38.45;;;;;;;10.95;100.00;102276.06;5286910;28;20026;-71
2022/05/07 01:44:17;;;;;;;67.90;39.17;;;;;;;10.99;100.00;102269.41;5268077;28;20032;-71
2022/05/07 01:49:38;;;;;;;70.82;39.30;;;;;;;11.02;100.00;102273.69;5273764;28;20059;-72
2022/05/07 01:52:09;;;;;;;71.35;37.88;;;;;;;11.05;100.00;102266.22;5284614;28;20387;-70
2022/05/07 01:54:39;;;;;;;69.97;37.20;;;;;;;11.02;100.00;102269.16;5275145;28;20499;-71
2022/05/07 01:57:10;;;;;;;69.43;37.83;;;;;;;11.04;100.00;102264.50;5273211;28;20020;-70
2022/05/07 01:59:41;;;;;;;64.47;36.20;;;;;;;11.07;100.00;102266.06;5276228;28;20044;-70
2022/05/07 02:02:11;;;;;;;70.60;38.50;;;;;;;11.07;100.00;102258.88;5279389;28;20028;-70
2022/05/07 02:04:42;;;;;;;71.18;38.08;;;;;;;11.07;100.00;102252.66;5277541;28;20094;-70
2022/05/07 02:07:12;;;;;;;65.72;36.55;;;;;;;11.07;100.00;102261.56;5286813;27;20027;-71
2022/05/07 02:09:43;;;;;;;70.60;39.05;;;;;;;11.09;100.00;102259.59;5273254;28;20031;-70
2022/05/07 02:12:13;;;;;;;67.82;37.90;;;;;;;11.12;100.00;102262.00;5286994;28;20029;-70
2022/05/07 02:14:44;;;;;;;72.90;37.72;;;;;;;11.17;100.00;102260.75;5287571;28;20507;-71
2022/05/07 02:17:15;;;;;;;77.47;39.30;;;;;;;11.18;100.00;102255.22;5269278;28;20035;-70
2022/05/07 02:19:45;;;;;;;70.13;39.72;;;;;;;11.18;100.00;102270.50;5271624;28;20024;-70
2022/05/07 02:22:16;;;;;;;67.18;35.63;;;;;;;11.14;100.00;102262.72;5290613;28;20023;-71
2022/05/07 02:24:46;;;;;;;62.92;35.15;;;;;;;11.08;100.00;102260.56;5273107;27;20106;-70
2022/05/07 02:27:17;;;;;;;72.00;37.38;;;;;;;11.00;100.00;102265.78;5280209;28;20481;-71
2022/05/07 02:29:48;;;;;;;63.25;36.15;;;;;;;10.95;100.00;102268.00;5276202;28;20024;-70
2022/05/07 02:32:19;;;;;;;65.43;36.13;;;;;;;10.95;100.00;102253.75;5278743;28;20034;-70
2022/05/07 02:34:49;;;;;;;72.55;38.78;;;;;;;10.99;100.00;102256.00;5282949;28;20031;-71
2022/05/07 02:37:20;;;;;;;71.10;39.35;;;;;;;11.02;100.00;102263.78;5269381;28;20024;-70
2022/05/07 02:39:50;;;;;;;72.53;37.72;;;;;;;11.04;100.00;102261.81;5269303;28;20473;-70
2022/05/07 02:45:12;;;;;;;73.45;37.72;;;;;;;11.11;100.00;102260.31;5278921;28;20058;-70
2022/05/07 02:47:43;;;;;;;65.63;36.88;;;;;;;11.18;100.00;102263.28;5268949;28;20039;-70
2022/05/07 02:50:14;;;;;;;68.78;37.80;;;;;;;11.11;100.00;102267.50;5269341;28;20032;-70
2022/05/07 02:52:44;;;;;;;63.40;36.35;;;;;;;11.11;100.00;102260.31;5282536;28;20027;-70
2022/05/07 02:55:15;;;;;;;59.17;34.75;;;;;;;11.11;100.00;102265.69;5268780;28;20024;-69
2022/05/07 02:57:46;;;;;;;61.22;34.42;;;;;;;11.15;100.00;102263.56;5282186;28;20028;-70
2022/05/07 03:00:17;;;;;;;61.08;33.50;;;;;;;11.16;100.00;102259.91;5282523;28;20437;-70
2022/05/07 03:02:47;;;;;;;58.40;33.05;;;;;;;11.18;100.00;102263.28;5268743;28;20103;-70
2022/05/07 03:05:18;;;;;;;59.83;32.42;;;;;;;11.22;100.00;102261.19;5282016;28;20051;-70
2022/05/07 03:07:48;;;;;;;66.88;33.55;;;;;;;11.23;100.00;102270.94;5276886;28;20423;-71
2022/05/07 03:10:19;;;;;;;64.50;35.22;;;;;;;11.22;100.00;102263.88;5282176;28;20035;-70
2022/05/07 03:12:49;;;;;;;55.80;31.00;;;;;;;11.20;100.00;102257.81;5268811;28;20016;-70
2022/05/07 03:15:20;;;;;;;51.67;28.50;;;;;;;11.19;100.00;102258.75;5273694;28;20027;-70
2022/05/07 03:17:50;;;;;;;52.95;29.63;;;;;;;11.20;100.00;102263.16;5281075;28;20089;-70
2022/05/07 03:20:21;;;;;;;49.10;28.52;;;;;;;11.23;100.00;102265.56;5283387;28;20031;-70
2022/05/07 03:22:51;;;;;;;51.28;28.70;;;;;;;11.27;100.00;102265.16;5288900;28;20400;-71
2022/05/07 03:25:22;;;;;;;54.67;28.35;;;;;;;11.28;100.00;102268.69;5282011;28;20039;-71
2022/05/07 03:27:52;;;;;;;45.63;25.20;;;;;;;11.31;100.00;102271.13;5281695;28;20015;-71
2022/05/07 03:30:22;;;;;;;43.33;24.98;;;;;;;11.36;100.00;102280.47;5276311;28;20176;-70
2022/05/07 03:32:53;;;;;;;43.33;25.40;;;;;;;11.38;100.00;102277.63;5275561;28;20062;-70
2022/05/07 03:35:24;;;;;;;39.00;22.02;;;;;;;11.40;100.00;102279.22;5279303;28;20058;-70
2022/05/07 03:37:55;;;;;;;38.10;22.48;;;;;;;11.45;100.00;102268.06;5267718;28;20020;-70
2022/05/07 03:40:26;;;;;;;40.53;22.98;;;;;;;11.46;100.00;102269.75;5280060;28;20035;-70
2022/05/07 03:42:57;;;;;;;40.53;23.95;;;;;;;11.49;100.00;102282.03;5269198;28;20027;-70
2022/05/07 03:45:28;;;;;;;41.15;22.63;;;;;;;11.48;100.00;102274.97;5267926;28;20020;-70
2022/05/07 03:47:59;;;;;;;41.90;22.40;;;;;;;11.47;100.00;102281.34;5281528;28;20028;-70
2022/05/07 03:50:30;;;;;;;37.72;21.83;;;;;;;11.47;100.00;102284.88;5267729;28;20382;-71
2022/05/07 03:55:49;;;;;;;38.25;20.95;;;;;;;11.47;100.00;102292.09;5281577;28;20024;-71
2022/05/07 03:58:20;;;;;;;36.00;19.65;;;;;;;11.44;100.00;102295.03;5279955;28;20080;-71
2022/05/07 04:00:50;;;;;;;37.28;20.13;;;;;;;11.48;100.00;102291.94;5274613;28;20019;-71
2022/05/07 04:03:21;;;;;;;30.80;17.17;;;;;;;11.48;100.00;102289.25;5288568;28;20015;-71
2022/05/07 04:05:52;;;;;;;31.48;17.17;;;;;;;11.49;100.00;102288.28;5274369;28;20039;-71
2022/05/07 04:08:23;;;;;;;29.15;15.18;;;;;;;11.54;100.00;102286.03;5273482;28;20027;-71
2022/05/07 04:10:54;;;;;;;25.48;14.95;;;;;;;11.59;100.00;102286.47;5267323;28;20039;-72
2022/05/07 04:13:24;;;;;;;25.88;14.55;;;;;;;11.60;100.00;102282.81;5281068;28;20024;-70
2022/05/07 04:15:55;;;;;;;28.63;14.18;;;;;;;11.62;100.00;102285.34;5273860;28;20358;-70
2022/05/07 04:18:25;;;;;;;28.13;14.52;;;;;;;11.62;100.00;102286.19;5271810;28;20076;-71
2022/05/07 04:20:56;;;;;;;26.63;12.82;;;;;;;11.62;100.00;102286.19;5283828;28;20055;-72
2022/05/07 04:23:26;;;;;;;25.23;13.02;;;;;;;11.67;100.00;102288.47;5272902;28;20079;-72
2022/05/07 04:25:57;;;;;;;24.25;12.65;;;;;;;11.69;100.00;102291.84;5274824;28;20031;-71
2022/05/07 04:28:27;;;;;;;23.95;13.10;;;;;;;11.73;100.00;102300.50;5280158;28;20032;-71
2022/05/07 04:30:57;;;;;;;25.00;12.98;;;;;;;11.75;100.00;102293.16;5280814;28;20131;-71
2022/05/07 04:33:28;;;;;;;19.73;11.98;;;;;;;11.79;100.00;102294.56;5276733;28;20055;-71
2022/05/07 04:35:58;;;;;;;24.48;11.65;;;;;;;11.81;100.00;102297.97;5273420;28;20066;-71
2022/05/07 04:38:29;;;;;;;25.45;11.57;;;;;;;11.84;100.00;102295.03;5266528;28;20042;-71
2022/05/07 04:40:59;;;;;;;24.88;10.85;;;;;;;11.83;100.00;102299.56;5280564;28;20081;-71
2022/05/07 04:43:31;;;;;;;25.25;11.27;;;;;;;11.85;100.00;102296.75;5278263;28;20020;-70
2022/05/07 04:46:01;;;;;;;21.90;11.18;;;;;;;11.86;100.00;102303.81;5273941;28;20028;-70
2022/05/07 04:48:32;;;;;;;19.23;10.50;;;;;;;11.81;100.00;102303.38;5275192;28;20016;-69
2022/05/07 04:51:03;;;;;;;19.70;10.32;;;;;;;11.80;100.00;102305.19;5272924;28;20068;-69
2022/05/07 04:53:33;;;;;;;28.00;11.80;;;;;;;11.82;100.00;102302.41;5273779;27;20024;-69
2022/05/07 04:56:04;;;;;;;21.77;10.48;;;;;;;11.87;100.00;102313.59;5280200;28;20473;-69
2022/05/07 04:58:34;;;;;;;23.02;10.57;;;;;;;11.88;100.00;102305.38;5280508;28;20369;-69
2022/05/07 05:01:05;;;;;;;26.40;9.90;;;;;;;11.94;100.00;102314.72;5275605;28;20023;-70
2022/05/07 05:03:35;;;;;;;22.30;11.02;;;;;;;11.95;100.00;102318.25;5287484;28;20186;-69
2022/05/07 05:06:06;;;;;;;21.52;9.93;;;;;;;11.97;100.00;102313.59;5286832;28;20103;-70
2022/05/07 05:08:36;;;;;;;17.98;9.48;;;;;;;11.96;100.00;102311.91;5269799;28;20020;-70
2022/05/07 05:11:07;;;;;;;21.80;9.88;;;;;;;12.02;100.00;102316.72;5277252;28;20020;-69
2022/05/07 05:13:37;;;;;;;20.80;10.15;;;;;;;12.05;100.00;102317.31;5281379;28;20020;-69
2022/05/07 05:16:07;;;;;;;20.40;9.57;;;;;;;12.12;100.00;102325.66;5273226;28;20392;-70
2022/05/07 05:18:38;;;;;;;24.55;10.00;;;;;;;12.16;100.00;102322.53;5279390;28;20085;-69
2022/05/07 05:21:09;;;;;;;23.65;10.35;;;;;;;12.19;100.00;102329.47;5279628;28;20068;-70
2022/05/07 05:23:39;;;;;;;24.20;9.50;;;;;;;12.26;100.00;102335.16;5274084;28;20027;-69
2022/05/07 05:26:10;;;;;;;23.90;10.13;;;;;;;12.31;100.00;102336.44;5273263;28;20028;-70
2022/05/07 05:28:42;;;;;;;21.48;9.30;;;;;;;12.33;100.00;102336.28;5276596;28;20020;-69
2022/05/07 05:31:13;;;;;;;24.88;9.80;;;;;;;12.37;100.00;102321.56;5265343;28;20070;-70
2022/05/07 05:33:43;;;;;;;24.05;9.90;;;;;;;12.41;100.00;102321.13;5273835;28;20052;-70
2022/05/07 05:36:14;;;;;;;26.27;11.73;;;;;;;12.42;100.00;102332.75;5272526;28;20489;-70
2022/05/07 05:38:44;;;;;;;24.77;11.43;;;;;;;12.49;100.00;102328.47;5274718;28;20020;-70
2022/05/07 05:41:16;;;;;;;22.33;10.75;;;;;;;12.60;100.00;102332.84;5279189;28;20035;-69
2022/05/07 05:43:46;;;;;;;31.00;11.73;;;;;;;12.63;100.00;102333.44;5283424;28;20051;-69
2022/05/07 05:46:17;;;;;;;29.30;12.52;;;;;;;12.66;100.00;102335.84;5275511;28;20112;-70
2022/05/07 05:48:48;;;;;;;29.80;11.98;;;;;;;12.75;100.00;102334.13;5277843;28;20045;-70
2022/05/07 05:51:18;;;;;;;27.70;11.20;;;;;;;12.78;100.00;102336.53;5279602;28;20645;-70
2022/05/07 05:53:48;;;;;;;34.33;12.68;;;;;;;12.84;100.00;102335.94;5282459;28;20051;-70
2022/05/07 05:56:19;;;;;;;31.48;13.15;;;;;;;12.97;100.00;102332.94;5287653;28;20038;-69
2022/05/07 05:58:49;;;;;;;27.88;12.70;;;;;;;13.02;100.00;102335.19;5288252;28;20432;-70
2022/05/07 06:01:20;;;;;;;26.55;12.52;;;;;;;13.04;100.00;102328.66;5287555;28;20027;-69
2022/05/07 06:03:51;;;;;;;31.15;14.20;;;;;;;13.12;100.00;102344.94;5285574;28;20473;-70
2022/05/07 06:06:21;;;;;;;29.45;13.07;;;;;;;13.23;100.00;102346.66;5285722;28;20334;-70
2022/05/07 06:08:51;;;;;;;35.33;14.13;;;;;;;13.30;100.00;102344.19;5274015;28;20016;-69
2022/05/07 06:11:22;;;;;;;32.58;12.80;;;;;;;13.44;100.00;102346.41;5274437;28;20074;-69
2022/05/07 06:13:52;;;;;;;36.03;14.65;;;;;;;13.53;100.00;102342.84;5287079;28;20211;-70
2022/05/07 06:16:23;;;;;;;36.80;14.70;;;;;;;13.59;100.00;102339.53;5273539;28;20026;-70
2022/05/07 06:18:54;;;;;;;44.95;15.30;;;;;;;13.77;100.00;102342.28;5287574;28;20030;-70
2022/05/07 06:21:25;;;;;;;33.35;13.82;;;;;;;14.00;100.00;102340.84;5285137;28;20025;-70
2022/05/07 06:23:56;;;;;;;27.95;13.77;;;;;;;14.24;100.00;102347.50;5276316;28;20091;-70
2022/05/07 06:29:15;;;;;;;31.88;15.02;;;;;;;14.41;100.00;102348.53;5287300;28;20031;-70
2022/05/07 06:31:45;;;;;;;32.20;15.02;;;;;;;14.67;100.00;102343.19;5279900;28;20103;-70
2022/05/07 06:34:19;;;;;;;32.20;16.00;;;;;;;14.75;100.00;102348.66;5279526;28;20095;-71
2022/05/07 06:36:50;;;;;;;33.10;14.80;;;;;;;15.14;100.00;102351.78;5266120;28;20302;-70
2022/05/07 06:39:21;;;;;;;28.35;14.13;;;;;;;15.50;100.00;102346.22;5281476;28;20077;-70
2022/05/07 06:41:52;;;;;;;28.70;14.45;;;;;;;16.25;100.00;102347.16;5286877;28;20026;-70
2022/05/07 06:44:22;;;;;;;34.45;15.18;;;;;;;16.21;100.00;102348.50;5287692;28;20032;-70
2022/05/07 06:46:53;;;;;;;30.17;14.32;;;;;;;16.24;100.00;102348.19;5289714;27;20547;-70
2022/05/07 06:49:23;;;;;;;33.72;15.32;;;;;;;16.47;100.00;102348.38;5287054;28;20108;-70
2022/05/07 06:51:54;;;;;;;40.80;16.17;;;;;;;16.60;100.00;102355.16;5287137;28;20016;-70
2022/05/07 06:54:24;;;;;;;30.10;15.60;;;;;;;17.00;100.00;102349.72;5286746;28;20412;-69
2022/05/07 06:56:55;;;;;;;28.02;14.23;;;;;;;17.24;100.00;102348.81;5286241;28;20058;-70
2022/05/07 06:59:25;;;;;;;31.42;15.73;;;;;;;17.29;100.00;102349.16;5265826;28;20243;-70
2022/05/07 07:01:57;;;;;;;31.23;16.70;;;;;;;17.13;100.00;102348.34;5280667;28;20058;-70
2022/05/07 07:04:28;;;;;;;31.25;16.60;;;;;;;17.09;100.00;102347.84;5277169;28;20251;-71
2022/05/07 07:06:58;;;;;;;37.03;16.85;;;;;;;17.13;100.00;102349.19;5281542;27;20036;-70
2022/05/07 07:09:29;;;;;;;38.25;16.98;;;;;;;17.62;100.00;102346.31;5276426;28;20114;-70
2022/05/07 07:11:59;;;;;;;38.60;17.40;;;;;;;17.51;100.00;102352.13;5285448;28;20054;-70
2022/05/07 07:14:30;;;;;;;35.72;17.02;;;;;;;18.16;100.00;102342.81;5286175;28;20031;-70
2022/05/07 07:17:00;;;;;;;30.83;14.50;;;;;;;18.59;100.00;102341.31;5273305;28;20046;-71
2022/05/07 07:19:32;;;;;;;39.63;18.63;;;;;;;18.25;100.00;102349.91;5286140;28;20107;-70
2022/05/07 07:22:03;;;;;;;35.58;17.23;;;;;;;17.71;100.00;102350.66;5272406;28;20085;-70
2022/05/07 07:24:33;;;;;;;36.55;17.30;;;;;;;17.00;100.00;102351.59;5265256;28;20031;-70
2022/05/07 07:27:04;;;;;;;33.47;16.77;;;;;;;16.79;100.00;102344.00;5265648;28;20123;-70
2022/05/07 07:29:35;;;;;;;37.10;18.02;;;;;;;16.62;100.00;102359.41;5280897;28;20504;-71
2022/05/07 07:32:06;;;;;;;36.55;17.13;;;;;;;16.65;100.00;102359.03;5286010;28;20031;-70
2022/05/07 07:34:36;;;;;;;40.42;16.70;;;;;;;16.71;100.00;102355.66;5272726;28;20324;-70
2022/05/07 07:37:07;;;;;;;36.72;16.10;;;;;;;16.68;100.00;102350.56;5285186;28;20043;-70
2022/05/07 07:39:37;;;;;;;39.60;16.90;;;;;;;16.63;100.00;102357.53;5272242;28;20055;-70
2022/05/07 07:42:08;;;;;;;38.42;17.48;;;;;;;16.94;100.00;102357.69;5286152;28;20019;-70
2022/05/07 07:44:39;;;;;;;38.70;16.65;;;;;;;17.29;100.00;102356.44;5271872;27;20548;-67
2022/05/07 07:49:58;;;;;;;32.80;18.77;;;;;;;17.48;100.00;102356.03;5275279;28;20044;-68
2022/05/07 07:52:28;;;;;;;41.05;17.77;;;;;;;18.20;100.00;102363.16;5282448;28;20020;-68
2022/05/07 07:54:59;;;;;;;41.67;18.98;;;;;;;18.48;100.00;102352.63;5273745;28;20035;-68
2022/05/07 07:57:29;;;;;;;43.40;19.00;;;;;;;18.98;100.00;102352.03;5278300;28;20500;-68
2022/05/07 08:00:00;;;;;;;38.47;19.13;;;;;;;19.17;100.00;102350.63;5277987;28;20491;-68
2022/05/07 08:02:30;;;;;;;43.63;18.83;;;;;;;19.10;100.00;102352.41;5285470;27;20503;-68
2022/05/07 08:05:00;;;;;;;41.97;17.55;;;;;;;18.84;100.00;102347.41;5285278;28;20504;-69
2022/05/07 08:13:08;;;;;;;31.23;17.00;;;;;;;21.38;100.00;102348.13;5278335;28;20250;-68
2022/05/07 08:15:39;;;;;;;32.03;18.20;;;;;;;21.28;100.00;102350.34;5285138;28;20026;-68
2022/05/07 08:18:09;;;;;;;35.38;17.80;;;;;;;20.40;100.00;102353.44;5285249;28;20016;-68
2022/05/07 08:20:41;;;;;;;35.80;17.17;;;;;;;19.94;100.00;102347.50;5284897;27;20027;-68
2022/05/07 08:23:12;;;;;;;42.88;19.10;;;;;;;18.91;100.00;102344.78;5285166;28;20039;-68
2022/05/07 08:25:42;;;;;;;38.88;18.80;;;;;;;18.99;100.00;102339.28;5285035;28;20019;-68
2022/05/07 08:28:13;;;;;;;42.38;18.52;;;;;;;19.22;100.00;102337.31;5279596;28;20300;-69
2022/05/07 08:30:44;;;;;;;38.50;17.52;;;;;;;19.56;100.00;102341.34;5263724;28;20065;-69
2022/05/07 08:33:14;;;;;;;35.90;18.38;;;;;;;19.23;100.00;102339.00;5283665;28;20461;-69
2022/05/07 08:35:45;;;;;;;38.92;17.95;;;;;;;19.86;100.00;102343.00;5271625;28;20063;-69
2022/05/07 08:38:15;;;;;;;35.03;17.10;;;;;;;19.77;100.00;102352.31;5276484;28;20008;-69
2022/05/07 08:40:46;;;;;;;38.22;18.10;;;;;;;20.50;100.00;102358.59;5264668;28;20028;-68
2022/05/07 08:43:18;;;;;;;33.95;16.13;;;;;;;21.73;100.00;102347.03;5285025;28;20035;-68
2022/05/07 08:45:49;;;;;;;37.72;16.67;;;;;;;22.98;94.98;102352.97;5267710;28;20024;-68
2022/05/07 08:48:19;;;;;;;37.63;17.92;;;;;;;21.22;100.00;102349.28;5274120;28;20024;-69
2022/05/07 08:50:53;;;;;;;38.20;17.58;;;;;;;21.39;100.00;102342.50;5284263;28;20020;-69
2022/05/07 08:53:24;;;;;;;39.60;19.30;;;;;;;20.95;100.00;102348.28;5284991;27;20333;-69
2022/05/07 08:55:54;;;;;;;38.00;18.10;;;;;;;21.73;100.00;102349.78;5284652;28;20114;-69
2022/05/07 08:58:25;;;;;;;34.42;16.80;;;;;;;22.41;100.00;102352.53;5284670;28;20524;-69
2022/05/07 09:00:56;;;;;;;35.25;17.33;;;;;;;23.15;100.00;102345.16;5284664;28;20518;-69
2022/05/07 09:03:39;;;;;;;34.20;16.60;;;;;;;24.02;88.88;102349.28;5283407;28;20016;-69
2022/05/07 09:06:22;;;;;;;32.95;17.00;;;;;;;23.80;90.38;102351.50;5273555;28;20043;-69
2022/05/07 09:08:55;;;;;;;33.65;16.48;;;;;;;24.58;82.08;102351.25;5284685;28;20107;-69
2022/05/07 09:11:26;;;;;;;37.58;17.45;;;;;;;23.76;82.91;102355.75;5284170;28;20023;-69
2022/05/07 09:14:18;;;;;;;38.67;17.52;;;;;;;24.01;83.44;102353.94;5278228;28;20362;-69
2022/05/07 09:16:50;;;;;;;31.25;16.63;;;;;;;23.68;86.10;102350.50;5271411;28;20274;-69
2022/05/07 09:19:25;;;;;;;41.97;17.63;;;;;;;23.25;90.81;102343.66;5284667;28;20019;-69
2022/05/07 09:22:08;;;;;;;33.85;16.85;;;;;;;24.02;87.95;102343.81;5269552;28;20038;-69
2022/05/07 09:24:40;;;;;;;36.33;17.58;;;;;;;24.88;78.17;102348.66;5270440;28;20031;-69
2022/05/07 09:27:20;;;;;;;33.45;16.98;;;;;;;23.73;87.30;102350.69;5275746;28;20081;-69
2022/05/07 09:30:08;;;;;;;29.50;16.33;;;;;;;25.67;75.81;102338.75;5280712;28;20498;-69
2022/05/07 09:32:38;;;;;;;34.63;16.58;;;;;;;25.21;80.72;102339.31;5283917;28;20031;-69
2022/05/07 09:38:22;;;;;;;27.20;15.25;;;;;;;25.89;70.87;102332.78;5262459;28;20020;-69
2022/05/07 09:40:53;;;;;;;28.33;15.15;;;;;;;25.18;70.24;102331.50;5284554;28;20027;-69
2022/05/07 09:43:26;;;;;;;30.23;13.73;;;;;;;25.21;66.50;102331.06;5271816;28;20382;-69
2022/05/07 09:45:56;;;;;;;27.23;14.60;;;;;;;25.05;68.06;102338.78;5276870;28;20035;-69
2022/05/07 09:48:28;;;;;;;28.55;13.70;;;;;;;24.85;71.56;102334.53;5274639;28;20024;-69
2022/05/07 09:50:58;;;;;;;30.02;14.43;;;;;;;24.93;76.50;102339.75;5278443;28;20028;-69
2022/05/07 09:59:18;;;;;;;32.25;15.75;;;;;;;25.24;78.16;102333.34;5262947;28;20058;-69
2022/05/07 10:02:05;;;;;;;29.50;13.60;;;;;;;25.72;75.05;102338.06;5277341;28;20023;-69
2022/05/07 10:04:54;;;;;;;31.95;15.23;;;;;;;26.46;69.63;102347.81;5284239;28;20102;-69
2022/05/07 10:07:37;;;;;;;26.90;15.02;;;;;;;25.73;65.81;102343.31;5284269;28;20416;-69
2022/05/07 10:10:25;;;;;;;28.55;14.88;;;;;;;25.19;72.36;102346.91;5269647;28;20035;-72
2022/05/07 10:12:59;;;;;;;29.70;15.00;;;;;;;25.19;76.43;102339.50;5284150;28;20019;-71
2022/05/07 10:15:30;;;;;;;29.17;15.60;;;;;;;24.97;71.24;102347.31;5269406;28;20307;-72
2022/05/07 10:18:03;;;;;;;28.35;15.27;;;;;;;24.89;71.30;102342.09;5277368;28;20082;-72
2022/05/07 10:20:46;;;;;;;31.77;16.17;;;;;;;24.61;74.03;102341.75;5281714;28;20034;-71
2022/05/07 10:23:29;;;;;;;29.17;15.02;;;;;;;25.20;71.97;102332.97;5279624;28;20107;-72
2022/05/07 10:26:01;;;;;;;30.30;15.80;;;;;;;24.80;72.27;102333.34;5276507;28;20034;-72
2022/05/07 10:28:51;;;;;;;31.52;15.68;;;;;;;24.34;72.70;102339.16;5276263;28;20466;-71
2022/05/07 10:31:23;;;;;;;28.63;13.95;;;;;;;24.41;78.62;102328.19;5280170;28;20034;-72
2022/05/07 10:33:53;;;;;;;28.33;14.90;;;;;;;24.76;74.11;102334.84;5272282;28;20495;-71
2022/05/07 10:36:35;;;;;;;28.48;14.13;;;;;;;24.46;75.91;102331.09;5279386;28;20126;-72
2022/05/07 10:39:07;;;;;;;29.05;15.98;;;;;;;23.96;74.25;102331.81;5266367;28;20020;-71
2022/05/07 10:41:57;;;;;;;38.67;15.48;;;;;;;23.53;84.59;102326.06;5286820;28;20031;-71
2022/05/07 10:44:31;;;;;;;27.05;15.02;;;;;;;23.84;83.10;102327.22;5287453;28;20023;-71
2022/05/07 10:47:20;;;;;;;29.23;15.27;;;;;;;24.36;79.61;102326.09;5287840;28;20023;-71
2022/05/07 10:49:53;;;;;;;29.90;15.68;;;;;;;24.22;78.78;102327.22;5275991;28;20110;-71
2022/05/07 10:52:41;;;;;;;33.67;15.02;;;;;;;24.04;84.72;102323.31;5287408;27;20035;-71
2022/05/07 10:55:16;;;;;;;29.80;14.75;;;;;;;24.18;83.31;102321.34;5287562;28;20420;-72
2022/05/07 10:57:48;;;;;;;33.55;16.67;;;;;;;23.92;86.53;102322.34;5266752;28;20016;-72
2022/05/07 11:00:20;;;;;;;31.35;17.23;;;;;;;23.95;87.88;102310.97;5267266;28;20055;-72
2022/05/07 11:02:56;;;;;;;35.13;14.60;;;;;;;24.38;84.73;102321.22;5277773;28;20079;-71
2022/05/07 11:05:31;;;;;;;28.50;15.88;;;;;;;25.00;80.41;102313.94;5270164;28;20047;-72
2022/05/07 11:08:03;;;;;;;29.10;15.30;;;;;;;24.55;79.77;102318.78;5287468;28;20084;-72
2022/05/07 11:10:33;;;;;;;32.60;16.23;;;;;;;24.42;81.65;102322.47;5266878;28;20051;-71
2022/05/07 11:13:06;;;;;;;28.50;14.43;;;;;;;24.29;84.21;102317.03;5279982;28;20016;-72
2022/05/07 11:15:37;;;;;;;24.10;14.10;;;;;;;24.85;77.07;102316.19;5287086;28;20027;-72
2022/05/07 11:18:31;;;;;;;27.35;14.32;;;;;;;24.78;81.52;102315.41;5273519;28;20103;-72
2022/05/07 11:21:03;;;;;;;27.67;13.00;;;;;;;24.73;83.52;102312.50;5274065;28;20072;-72
2022/05/07 11:23:36;;;;;;;22.50;12.73;;;;;;;25.22;79.93;102299.78;5271578;28;20024;-72
2022/05/07 11:26:23;;;;;;;25.77;13.02;;;;;;;25.20;74.17;102301.91;5290312;27;20105;-72
2022/05/07 11:28:54;;;;;;;28.42;13.73;;;;;;;25.45;75.69;102302.69;5277211;28;20031;-72
2022/05/07 11:31:25;;;;;;;24.10;13.00;;;;;;;25.47;77.27;102291.44;5278761;28;20031;-72
2022/05/07 11:34:08;;;;;;;24.27;13.25;;;;;;;25.46;70.26;102295.28;5277737;28;20114;-72
2022/05/07 11:36:40;;;;;;;26.15;13.20;;;;;;;25.13;69.56;102296.50;5265677;28;20032;-72
2022/05/07 11:39:15;;;;;;;25.23;13.70;;;;;;;24.99;73.96;102295.75;5279301;28;20061;-72
2022/05/07 11:41:54;;;;;;;25.50;13.82;;;;;;;25.19;73.33;102290.06;5275083;28;20023;-72
2022/05/07 11:47:33;;;;;;;33.22;16.80;;;;;;;24.70;72.44;102293.72;5286833;28;20023;-71
2022/05/07 11:50:06;;;;;;;26.27;14.77;;;;;;;24.77;73.64;102289.03;5274875;28;20016;-72
2022/05/07 11:52:36;;;;;;;29.58;13.98;;;;;;;24.70;75.40;102285.50;5265483;28;20024;-72
2022/05/07 11:55:07;;;;;;;22.73;11.88;;;;;;;24.29;75.41;102278.66;5278164;28;20035;-72
2022/05/07 11:57:38;;;;;;;23.35;12.30;;;;;;;24.21;76.45;102287.16;5285025;28;20401;-72
2022/05/07 12:00:28;;;;;;;24.08;14.25;;;;;;;24.11;76.24;102284.06;5285013;28;20027;-72